KMDD/MDD METAR and TAF weather

Enter ICAO airport designator
Station Type Date Time Source
KMDD METAR 2019/06/17 06:35 UTC NOAA

KMDD 170635Z AUTO 09007KT 10SM CLR 23/19 A2995 RMK AO2 T02330189


Station Type Date Time Source
KMDD Decoded METAR 2019/06/17 06:35 UTC NOAA

Midland, Midland Airpark, TX, United States (KMDD) 32-02-11N 102-06-03W
Jun 17, 2019 - 02:35 AM EDT / 2019.06.17 0635 UTC
Wind: from the E (090 degrees) at 8 MPH (7 KT):0
Visibility: 10 mile(s):0
Sky conditions: clear
Temperature: 73.9 F (23.3 C)
Dew Point: 66.0 F (18.9 C)
Relative Humidity: 76%
Pressure (altimeter): 29.95 in. Hg (1014 hPa)
ob: KMDD 170635Z AUTO 09007KT 10SM CLR 23/19 A2995 RMK AO2 T02330189
cycle: 6

Station Type Date Time Source
KMDD TAF UTC NOAA

Error!

Example: see airport list